Mineralnyye Vody Airport
URMM : now visible

Airfield :











YOU CAN JOIN US ON...

 
LOGIN :

Register | Disclaimer

   EN    FR    IT 

 









Legend :    VFR   Marginal VFR   IFR   Intensive IFR   Very Intensive IFR
Visi :
Ceiling :
>= 8 km
>= 3000ft
5 to 8 km
1000 to 3000 ft
1500m to 5 km
500 to 1000 ft
800 to 1500m
200 to 500 ft
< 800m
< 200 ft
Symbols :   Thunderstorms  Fog  Heavy snow  Heavy precipitations  Wind > 20 kt






- Airport Elevation : 1054 ft
- IATA code : MRV


URMM - Mineralnyye Vody

CURRENT METAR :
  • 011900Z 10007MPS 9999 FEW/// 15/08 Q1016 R12/090070 NOSIG RMK QFE734/0978

EXPIRED METARs :
  • 011830Z 09005MPS 9999 SCT054CB 16/07 Q1015 R12/090070 NOSIG RMK QFE733/0978
  • 011800Z 11007MPS 9999 BKN054CB 16/06 Q1015 R12/090070 NOSIG RMK QFE733/0978
  • 011730Z 12006MPS 9999 -SHRA BKN058CB 17/05 Q1015 R12/090070 NOSIG RMK QFE733/0978
  • 011700Z 10010MPS 9999 SCT060CB 17/04 Q1014 R12/090070 NOSIG RMK QFE732/0977

TAF TAF URMM
Valid from the 01 at 18:00 until the 02 at 18:00 UTC


011700Z 0118/0218 10006G13MPS 9999 SCT030 TX23/0212Z TN11/0203Z
TEMPO 0118/0206 VRB09G18MPS -TSRA BKN016 BKN030CB
BECMG 0206/0208 09003G08MPS
TEMPO 0209/0218 -SHRA BKN016 BKN030CB
URRV FIR / Europe



MET'MAP, your aeronautical weather chart ! - Copyright ORBIFLY December 2007 - Disclaimer

ORBIFLY MET'MAP TEAM :

Programming & Development : Alexandra Zaïnal
Concept & original design : Baudouin d'Aumeries
Assistance for programming : Marc-Olivier Méhu
Technical & hardware support : Manuel Goepfert

Contact : metmap@orbifly.com




SOURCES & CREDITS :

   NOAA       Earth
Advisory